Time;durP1;ratioP1;P1;durP2;ratioP2;P2;SDS_P1;SDS_P2;PMS_P1;PMS_P2;Temp;Humidity;BMP_temperature;BMP_pressure;BME280_temperature;BME280_humidity;BME280_pressure;Samples;Min_cycle;Max_cycle;Signal;HPM_P1;HPM_P2
2023/03/10 00:00:14;;;;;;;1.23;0.93;;;;;;;;;;5045167;28;20044;-85
2023/03/10 00:02:45;;;;;;;1.65;0.80;;;;;;;;;;5026701;28;20033;-84
2023/03/10 00:05:11;;;;;;;2.28;0.88;;;;;;;;;;5042677;28;20508;-84
2023/03/10 00:07:36;;;;;;;3.40;0.68;;;;;;;;;;5044927;28;20034;-84
2023/03/10 00:10:03;;;;;;;1.42;0.75;;;;;;;;;;5027733;28;20044;-84
2023/03/10 00:12:28;;;;;;;1.80;0.90;;;;;;;;;;5045711;28;20041;-85
2023/03/10 00:14:55;;;;;;;1.73;0.90;;;;;;;;;;5027897;28;20486;-84
2023/03/10 00:17:20;;;;;;;2.75;0.80;;;;;;;;;;5027234;28;20106;-84
2023/03/10 00:19:46;;;;;;;3.20;1.00;;;;;;;;;;5045589;28;20056;-84
2023/03/10 00:22:11;;;;;;;1.30;0.60;;;;;;;;;;5027763;28;20034;-85
2023/03/10 00:24:37;;;;;;;2.85;0.77;;;;;;;;;;5045938;28;20040;-84
2023/03/10 00:27:02;;;;;;;0.80;0.65;;;;;;;;;;5028387;28;20128;-85
2023/03/10 00:29:28;;;;;;;2.75;0.80;;;;;;;;;;5028793;28;20449;-84
2023/03/10 00:31:53;;;;;;;1.25;0.63;;;;;;;;;;5029060;28;20029;-84
2023/03/10 00:34:19;;;;;;;1.30;0.80;;;;;;;;;;5012520;28;20478;-84
2023/03/10 00:36:44;;;;;;;1.23;0.90;;;;;;;;;;5026467;28;20036;-84
2023/03/10 00:39:10;;;;;;;1.85;0.80;;;;;;;;;;5026392;28;20053;-84
2023/03/10 00:41:37;;;;;;;1.23;0.63;;;;;;;;;;5026602;28;20061;-83
2023/03/10 00:44:04;;;;;;;1.88;0.90;;;;;;;;;;5043522;28;20030;-83
2023/03/10 00:46:32;;;;;;;2.42;0.70;;;;;;;;;;5024958;28;20059;-85
2023/03/10 00:48:57;;;;;;;2.25;0.60;;;;;;;;;;5025883;28;20063;-83
2023/03/10 00:51:23;;;;;;;1.00;0.60;;;;;;;;;;5026231;28;20056;-82
2023/03/10 00:53:49;;;;;;;1.25;0.70;;;;;;;;;;5026408;28;20460;-83
2023/03/10 00:56:20;;;;;;;3.00;0.77;;;;;;;;;;5008574;28;20040;-84
2023/03/10 00:58:53;;;;;;;1.50;0.60;;;;;;;;;;5025011;28;20091;-83
2023/03/10 01:01:24;;;;;;;1.25;0.70;;;;;;;;;;5025188;28;20137;-82
2023/03/10 01:03:52;;;;;;;2.35;0.77;;;;;;;;;;5025270;28;20109;-83
2023/03/10 01:06:17;;;;;;;0.98;0.60;;;;;;;;;;5025351;28;20029;-83
2023/03/10 01:08:44;;;;;;;1.17;0.60;;;;;;;;;;5024982;28;20037;-84
2023/03/10 01:11:20;;;;;;;2.40;0.70;;;;;;;;;;5024650;28;20048;-83
2023/03/10 01:13:46;;;;;;;1.00;0.73;;;;;;;;;;5025806;28;20033;-83
2023/03/10 01:16:12;;;;;;;1.17;0.70;;;;;;;;;;5044380;28;20033;-83
2023/03/10 01:18:38;;;;;;;1.52;0.80;;;;;;;;;;5043888;28;20064;-83
2023/03/10 01:21:05;;;;;;;0.93;0.60;;;;;;;;;;5025808;28;20057;-83
2023/03/10 01:23:31;;;;;;;1.00;0.60;;;;;;;;;;5025566;28;20037;-83
2023/03/10 01:25:56;;;;;;;1.20;0.60;;;;;;;;;;5025226;28;20033;-82
2023/03/10 01:28:22;;;;;;;1.23;0.70;;;;;;;;;;5025464;28;20417;-83
2023/03/10 01:30:49;;;;;;;1.27;0.77;;;;;;;;;;5024343;28;20129;-83
2023/03/10 01:33:16;;;;;;;1.58;0.70;;;;;;;;;;5008158;28;20124;-83
2023/03/10 01:35:42;;;;;;;2.53;0.82;;;;;;;;;;5009784;28;20033;-83
2023/03/10 01:38:10;;;;;;;1.23;0.50;;;;;;;;;;5043438;28;20025;-83
2023/03/10 01:40:37;;;;;;;0.73;0.60;;;;;;;;;;5043642;28;20094;-83
2023/03/10 01:43:19;;;;;;;1.10;0.70;;;;;;;;;;5025263;28;20044;-82
2023/03/10 01:45:44;;;;;;;2.13;0.60;;;;;;;;;;5025630;28;20037;-83
2023/03/10 01:48:13;;;;;;;1.08;0.63;;;;;;;;;;5025769;28;20040;-84
2023/03/10 01:50:40;;;;;;;0.50;0.50;;;;;;;;;;5008734;28;20030;-83
2023/03/10 01:53:06;;;;;;;0.70;0.60;;;;;;;;;;5008901;28;20125;-84
2023/03/10 01:55:34;;;;;;;1.70;0.70;;;;;;;;;;5024699;28;20097;-81
2023/03/10 01:58:00;;;;;;;0.90;0.60;;;;;;;;;;5025097;28;20059;-85
2023/03/10 02:00:28;;;;;;;1.33;0.70;;;;;;;;;;5024982;28;20042;-84
2023/03/10 02:03:06;;;;;;;0.75;0.60;;;;;;;;;;5025453;28;20032;-85
2023/03/10 02:05:35;;;;;;;1.63;0.70;;;;;;;;;;5024499;28;20124;-84
2023/03/10 02:08:02;;;;;;;2.42;0.60;;;;;;;;;;5023819;28;20029;-84
2023/03/10 02:10:28;;;;;;;0.82;0.60;;;;;;;;;;5008260;28;20038;-85
2023/03/10 02:12:54;;;;;;;4.38;0.93;;;;;;;;;;5027477;28;20037;-83
2023/03/10 02:15:19;;;;;;;2.65;0.90;;;;;;;;;;5027690;28;20041;-83
2023/03/10 02:17:46;;;;;;;0.98;0.70;;;;;;;;;;5029904;28;20037;-84
2023/03/10 02:20:29;;;;;;;3.28;1.05;;;;;;;;;;5011791;28;20037;-84
2023/03/10 02:22:56;;;;;;;2.05;0.70;;;;;;;;;;5012549;28;20041;-84
2023/03/10 02:25:22;;;;;;;1.45;0.90;;;;;;;;;;5046714;28;20037;-84
2023/03/10 02:27:47;;;;;;;1.10;0.85;;;;;;;;;;5028416;28;20045;-83
2023/03/10 02:30:27;;;;;;;1.33;0.90;;;;;;;;;;5028298;28;20510;-84
2023/03/10 02:32:57;;;;;;;1.70;0.80;;;;;;;;;;5028994;28;20440;-84
2023/03/10 02:35:23;;;;;;;1.08;0.80;;;;;;;;;;5029040;28;20705;-84
2023/03/10 02:37:53;;;;;;;0.70;0.60;;;;;;;;;;5029304;28;20057;-84
2023/03/10 02:40:32;;;;;;;2.63;0.77;;;;;;;;;;5028866;28;20044;-84
2023/03/10 02:43:04;;;;;;;3.05;0.73;;;;;;;;;;5056225;23;20068;-87
2023/03/10 02:45:34;;;;;;;1.63;0.80;;;;;;;;;;5064187;28;20028;-86
2023/03/10 02:48:00;;;;;;;2.17;0.80;;;;;;;;;;5064336;28;20029;-86
2023/03/10 02:50:28;;;;;;;2.35;0.80;;;;;;;;;;5065247;28;20031;-87
2023/03/10 02:53:03;;;;;;;0.95;0.60;;;;;;;;;;5064828;28;20045;-86
2023/03/10 02:55:28;;;;;;;1.67;0.80;;;;;;;;;;5064493;28;20043;-86
2023/03/10 02:57:55;;;;;;;2.03;0.80;;;;;;;;;;5064654;28;20032;-86
2023/03/10 03:00:20;;;;;;;1.05;0.80;;;;;;;;;;5048246;28;20033;-85
2023/03/10 03:02:46;;;;;;;2.33;1.17;;;;;;;;;;5064644;28;20093;-86
2023/03/10 03:05:11;;;;;;;4.03;0.90;;;;;;;;;;5082770;28;20384;-86
2023/03/10 03:07:37;;;;;;;0.90;0.70;;;;;;;;;;5082985;28;20040;-86
2023/03/10 03:10:03;;;;;;;1.20;0.90;;;;;;;;;;5082729;28;20060;-86
2023/03/10 03:12:29;;;;;;;2.05;0.90;;;;;;;;;;5048446;28;20037;-86
2023/03/10 03:14:54;;;;;;;2.25;0.80;;;;;;;;;;5064897;28;20059;-86
2023/03/10 03:17:20;;;;;;;1.15;0.80;;;;;;;;;;5064713;28;20036;-86
2023/03/10 03:19:46;;;;;;;1.10;0.80;;;;;;;;;;5082763;28;20036;-86
2023/03/10 03:22:11;;;;;;;1.90;0.70;;;;;;;;;;5064621;28;20094;-86
2023/03/10 03:24:37;;;;;;;1.25;0.80;;;;;;;;;;5064232;28;20055;-86
2023/03/10 03:27:04;;;;;;;2.00;0.90;;;;;;;;;;5064562;28;20036;-87
2023/03/10 03:29:29;;;;;;;3.22;0.90;;;;;;;;;;5064812;28;20067;-86
2023/03/10 03:31:55;;;;;;;1.30;0.65;;;;;;;;;;5048682;28;20036;-86
2023/03/10 03:34:24;;;;;;;1.27;0.82;;;;;;;;;;5064836;28;20033;-86
2023/03/10 03:36:53;;;;;;;1.90;0.70;;;;;;;;;;5064749;28;20048;-85
2023/03/10 03:39:24;;;;;;;0.80;0.70;;;;;;;;;;5065037;28;20028;-86
2023/03/10 03:41:56;;;;;;;2.38;0.85;;;;;;;;;;5065362;28;20029;-87
2023/03/10 03:44:23;;;;;;;2.75;0.70;;;;;;;;;;5066531;28;20044;-85
2023/03/10 03:46:50;;;;;;;1.70;0.75;;;;;;;;;;5063959;28;20123;-86
2023/03/10 03:49:15;;;;;;;2.13;0.98;;;;;;;;;;5064386;28;20067;-86
2023/03/10 03:51:41;;;;;;;1.00;0.80;;;;;;;;;;5063634;28;20039;-86
2023/03/10 03:54:08;;;;;;;1.55;0.80;;;;;;;;;;5047122;28;20036;-86
2023/03/10 03:56:36;;;;;;;1.10;0.70;;;;;;;;;;5063775;28;20378;-86
2023/03/10 03:59:01;;;;;;;0.80;0.80;;;;;;;;;;5063067;28;20031;-86
2023/03/10 04:01:27;;;;;;;4.72;1.00;;;;;;;;;;5046851;28;20033;-86
2023/03/10 04:03:55;;;;;;;1.40;0.90;;;;;;;;;;5063619;28;20068;-84
2023/03/10 04:06:22;;;;;;;1.80;0.75;;;;;;;;;;5063200;28;20032;-86
2023/03/10 04:08:49;;;;;;;1.25;0.70;;;;;;;;;;5063244;28;20028;-86
2023/03/10 04:11:15;;;;;;;1.42;0.80;;;;;;;;;;5046528;28;20037;-86
2023/03/10 04:13:43;;;;;;;1.40;0.80;;;;;;;;;;5063107;28;20037;-86
2023/03/10 04:16:10;;;;;;;1.38;0.77;;;;;;;;;;5062728;28;20074;-86
2023/03/10 04:18:37;;;;;;;0.77;0.65;;;;;;;;;;5062906;28;20032;-86
2023/03/10 04:21:04;;;;;;;1.45;0.73;;;;;;;;;;5063319;28;20434;-86
2023/03/10 04:23:30;;;;;;;1.15;0.80;;;;;;;;;;5030894;28;20036;-86
2023/03/10 04:25:56;;;;;;;1.08;0.70;;;;;;;;;;5042557;28;20043;-86
2023/03/10 04:28:22;;;;;;;2.92;0.90;;;;;;;;;;5042196;28;20029;-87
2023/03/10 04:30:50;;;;;;;1.10;0.73;;;;;;;;;;5026372;28;20025;-86
2023/03/10 04:33:18;;;;;;;1.63;0.80;;;;;;;;;;5042751;28;20166;-87
2023/03/10 04:35:50;;;;;;;1.38;0.77;;;;;;;;;;5042598;28;20737;-86
2023/03/10 04:38:17;;;;;;;2.65;0.90;;;;;;;;;;5042224;28;20029;-85
2023/03/10 04:40:43;;;;;;;1.35;0.90;;;;;;;;;;5041663;28;20032;-86
2023/03/10 04:43:09;;;;;;;1.15;0.80;;;;;;;;;;5042283;28;20047;-86
2023/03/10 04:45:35;;;;;;;1.45;1.00;;;;;;;;;;5042646;28;20513;-86
2023/03/10 04:48:01;;;;;;;1.25;0.70;;;;;;;;;;5042541;28;20021;-86
2023/03/10 04:50:27;;;;;;;1.23;0.70;;;;;;;;;;5059547;28;20024;-86
2023/03/10 04:52:53;;;;;;;0.85;0.70;;;;;;;;;;5042150;28;20386;-86
2023/03/10 04:55:23;;;;;;;4.05;1.20;;;;;;;;;;5041985;28;20033;-86
2023/03/10 04:57:49;;;;;;;2.47;0.80;;;;;;;;;;5042222;28;20028;-86
2023/03/10 05:00:15;;;;;;;4.47;1.20;;;;;;;;;;5042755;28;20017;-86
2023/03/10 05:02:41;;;;;;;1.48;1.10;;;;;;;;;;5043791;28;20052;-86
2023/03/10 05:05:09;;;;;;;2.45;1.13;;;;;;;;;;5059624;28;20029;-86
2023/03/10 05:07:38;;;;;;;1.45;0.90;;;;;;;;;;5058413;28;20101;-86
2023/03/10 05:10:04;;;;;;;3.03;1.10;;;;;;;;;;5060392;28;20072;-86
2023/03/10 05:12:30;;;;;;;2.42;1.30;;;;;;;;;;5042741;28;20040;-86
2023/03/10 05:14:56;;;;;;;2.17;1.00;;;;;;;;;;5041932;28;20033;-84
2023/03/10 05:17:21;;;;;;;2.00;1.15;;;;;;;;;;5060434;28;20443;-85
2023/03/10 05:19:47;;;;;;;1.45;0.90;;;;;;;;;;5041794;28;20041;-85
2023/03/10 05:22:12;;;;;;;2.65;1.08;;;;;;;;;;5041475;28;20029;-86
2023/03/10 05:24:38;;;;;;;3.63;1.27;;;;;;;;;;5059504;28;20041;-86
2023/03/10 05:27:03;;;;;;;2.60;1.30;;;;;;;;;;5042479;28;20049;-86
2023/03/10 05:29:30;;;;;;;2.85;1.30;;;;;;;;;;5042056;28;20044;-86
2023/03/10 05:32:02;;;;;;;3.03;1.30;;;;;;;;;;5042311;28;20037;-85
2023/03/10 05:34:33;;;;;;;3.28;1.15;;;;;;;;;;5042685;28;20271;-86
2023/03/10 05:37:01;;;;;;;2.88;1.40;;;;;;;;;;5058623;28;20047;-86
2023/03/10 05:39:27;;;;;;;4.40;1.55;;;;;;;;;;5059221;28;20455;-86
2023/03/10 05:41:54;;;;;;;4.50;2.58;;;;;;;;;;5041182;28;20054;-86
2023/03/10 05:44:23;;;;;;;4.05;2.00;;;;;;;;;;5041916;28;20038;-86
2023/03/10 05:46:49;;;;;;;2.33;1.42;;;;;;;;;;5062587;28;20044;-86
2023/03/10 05:49:14;;;;;;;3.72;1.20;;;;;;;;;;5046270;28;20037;-86
2023/03/10 05:51:40;;;;;;;5.00;1.58;;;;;;;;;;5062224;28;20440;-86
2023/03/10 05:54:06;;;;;;;2.63;1.40;;;;;;;;;;5044289;28;20033;-86
2023/03/10 05:56:32;;;;;;;2.20;1.30;;;;;;;;;;5044277;28;20035;-86
2023/03/10 05:59:00;;;;;;;2.97;1.40;;;;;;;;;;5044942;28;20072;-86
2023/03/10 06:01:32;;;;;;;3.58;1.48;;;;;;;;;;5044364;28;20125;-86
2023/03/10 06:03:57;;;;;;;4.30;1.90;;;;;;;;;;5044487;28;20305;-85
2023/03/10 06:06:23;;;;;;;5.13;1.80;;;;;;;;;;5062745;28;20389;-86
2023/03/10 06:08:48;;;;;;;3.15;1.80;;;;;;;;;;5044668;28;20029;-86
2023/03/10 06:11:14;;;;;;;2.38;1.30;;;;;;;;;;5064011;28;20080;-86
2023/03/10 06:13:39;;;;;;;3.95;1.40;;;;;;;;;;5063976;28;20032;-87
2023/03/10 06:16:06;;;;;;;3.20;1.70;;;;;;;;;;5063750;28;20033;-86
2023/03/10 06:18:32;;;;;;;5.88;1.50;;;;;;;;;;5045499;28;20029;-86
2023/03/10 06:20:57;;;;;;;9.60;4.35;;;;;;;;;;5062502;28;20037;-86
2023/03/10 06:23:23;;;;;;;6.18;3.10;;;;;;;;;;5045058;28;20520;-87
2023/03/10 06:26:05;;;;;;;9.65;3.83;;;;;;;;;;5062599;28;20036;-87
2023/03/10 06:28:32;;;;;;;7.47;2.58;;;;;;;;;;5044886;28;20037;-86
2023/03/10 06:31:00;;;;;;;8.07;3.15;;;;;;;;;;5063260;28;20040;-86
2023/03/10 06:33:26;;;;;;;7.13;3.67;;;;;;;;;;5081272;28;20477;-83
2023/03/10 06:35:52;;;;;;;11.38;6.40;;;;;;;;;;5048424;28;20032;-84
2023/03/10 06:38:18;;;;;;;19.73;10.50;;;;;;;;;;5049779;28;20033;-87
2023/03/10 06:40:44;;;;;;;32.08;16.20;;;;;;;;;;5083825;28;20599;-87
2023/03/10 06:43:09;;;;;;;6.82;2.47;;;;;;;;;;5083264;28;20036;-87
2023/03/10 06:45:35;;;;;;;4.63;2.30;;;;;;;;;;5083536;28;20412;-86
2023/03/10 06:48:00;;;;;;;6.20;1.70;;;;;;;;;;5083608;28;20039;-86
2023/03/10 06:50:33;;;;;;;3.42;1.10;;;;;;;;;;5065028;28;20119;-86
2023/03/10 06:52:58;;;;;;;4.25;1.48;;;;;;;;;;5083646;28;20064;-87
2023/03/10 06:55:24;;;;;;;4.30;2.38;;;;;;;;;;5081265;28;20475;-84
2023/03/10 06:57:49;;;;;;;8.98;5.28;;;;;;;;;;5061307;28;20093;-85
2023/03/10 07:00:15;;;;;;;15.27;7.18;;;;;;;;;;5063304;28;20036;-84
2023/03/10 07:02:42;;;;;;;8.07;3.80;;;;;;;;;;5063404;28;20041;-85
2023/03/10 07:05:11;;;;;;;4.47;2.67;;;;;;;;;;5081017;28;20044;-85
2023/03/10 07:07:37;;;;;;;3.33;1.35;;;;;;;;;;5062832;28;20036;-85
2023/03/10 07:10:04;;;;;;;4.30;2.17;;;;;;;;;;5081923;28;20127;-84
2023/03/10 07:12:30;;;;;;;5.22;1.60;;;;;;;;;;5081258;28;20040;-85
2023/03/10 07:14:55;;;;;;;3.33;1.67;;;;;;;;;;5080000;28;20033;-85
2023/03/10 07:17:21;;;;;;;7.80;5.00;;;;;;;;;;5064219;28;20123;-85
2023/03/10 07:19:46;;;;;;;8.50;2.40;;;;;;;;;;5064059;28;20052;-84
2023/03/10 07:22:11;;;;;;;4.30;2.70;;;;;;;;;;5081879;28;20416;-84
2023/03/10 07:24:37;;;;;;;4.03;1.80;;;;;;;;;;5062761;28;20029;-86
2023/03/10 07:27:03;;;;;;;4.35;2.10;;;;;;;;;;5081570;28;20046;-86
2023/03/10 07:29:28;;;;;;;5.07;2.00;;;;;;;;;;5081262;28;20032;-85
2023/03/10 07:31:54;;;;;;;3.60;1.52;;;;;;;;;;5081747;28;20109;-86
2023/03/10 07:34:20;;;;;;;10.10;3.70;;;;;;;;;;5082020;28;20039;-86
2023/03/10 07:36:46;;;;;;;29.35;15.57;;;;;;;;;;5064196;28;20476;-86
2023/03/10 07:39:11;;;;;;;14.52;8.32;;;;;;;;;;5080355;28;20040;-86
2023/03/10 07:41:37;;;;;;;8.52;4.80;;;;;;;;;;5080330;28;20611;-85
2023/03/10 07:44:02;;;;;;;5.57;3.22;;;;;;;;;;5081411;28;20024;-86
2023/03/10 07:46:28;;;;;;;7.55;4.25;;;;;;;;;;5082391;28;20037;-86
2023/03/10 07:48:57;;;;;;;5.28;2.70;;;;;;;;;;5063974;28;20401;-86
2023/03/10 07:51:22;;;;;;;4.05;2.00;;;;;;;;;;5063215;28;20059;-86
2023/03/10 07:53:48;;;;;;;3.92;2.40;;;;;;;;;;5063255;28;20401;-87
2023/03/10 07:56:14;;;;;;;4.53;2.10;;;;;;;;;;5046180;28;20036;-86
2023/03/10 07:58:39;;;;;;;4.53;2.20;;;;;;;;;;5081257;28;20032;-86
2023/03/10 08:01:06;;;;;;;2.58;1.70;;;;;;;;;;5080602;28;20553;-85
2023/03/10 08:03:35;;;;;;;4.00;1.90;;;;;;;;;;5062723;28;20496;-86
2023/03/10 08:06:04;;;;;;;6.78;1.90;;;;;;;;;;5045250;28;20479;-86
2023/03/10 08:08:29;;;;;;;3.33;1.63;;;;;;;;;;5060879;28;20040;-86
2023/03/10 08:11:08;;;;;;;3.35;1.70;;;;;;;;;;5079645;28;20036;-87
2023/03/10 08:13:34;;;;;;;7.15;1.90;;;;;;;;;;5081497;28;20072;-86
2023/03/10 08:16:00;;;;;;;4.30;2.20;;;;;;;;;;5078678;28;20424;-85
2023/03/10 08:18:26;;;;;;;3.80;2.30;;;;;;;;;;5078050;28;20037;-85
2023/03/10 08:20:52;;;;;;;4.60;2.30;;;;;;;;;;5078300;28;20040;-84
2023/03/10 08:23:17;;;;;;;4.18;1.88;;;;;;;;;;5078118;28;20116;-85
2023/03/10 08:25:43;;;;;;;4.85;2.00;;;;;;;;;;5078525;28;20044;-85
2023/03/10 08:28:08;;;;;;;3.35;2.03;;;;;;;;;;5058481;28;20036;-86
2023/03/10 08:30:34;;;;;;;3.58;1.90;;;;;;;;;;5062073;28;20151;-87
2023/03/10 08:32:59;;;;;;;2.47;1.60;;;;;;;;;;5064998;28;20040;-85
2023/03/10 08:35:25;;;;;;;3.47;1.70;;;;;;;;;;5078593;28;20021;-86
2023/03/10 08:37:51;;;;;;;5.40;1.63;;;;;;;;;;5077932;28;20111;-85
2023/03/10 08:40:17;;;;;;;7.18;1.70;;;;;;;;;;5078436;28;20044;-86
2023/03/10 08:42:43;;;;;;;4.30;1.73;;;;;;;;;;5077899;28;20047;-86
2023/03/10 08:45:10;;;;;;;2.58;1.33;;;;;;;;;;5077375;28;20035;-86
2023/03/10 08:47:36;;;;;;;3.50;1.25;;;;;;;;;;5059656;28;20036;-85
2023/03/10 08:50:05;;;;;;;2.75;1.30;;;;;;;;;;5077610;28;20090;-85
2023/03/10 08:52:31;;;;;;;2.60;1.35;;;;;;;;;;5060442;28;20085;-86
2023/03/10 08:54:56;;;;;;;3.28;1.45;;;;;;;;;;5077690;28;20439;-85
2023/03/10 08:57:22;;;;;;;4.68;1.70;;;;;;;;;;5078010;28;20039;-84
2023/03/10 08:59:48;;;;;;;3.90;1.70;;;;;;;;;;5078003;28;20033;-85
2023/03/10 09:02:14;;;;;;;5.20;1.52;;;;;;;;;;5077564;28;20040;-87
2023/03/10 09:04:40;;;;;;;2.78;1.20;;;;;;;;;;5076804;28;20032;-86
2023/03/10 09:07:06;;;;;;;4.93;1.50;;;;;;;;;;5074265;22;20045;-85
2023/03/10 09:09:31;;;;;;;2.55;1.30;;;;;;;;;;5033057;28;20123;-84
2023/03/10 09:11:57;;;;;;;4.18;1.20;;;;;;;;;;5042773;28;20462;-84
2023/03/10 09:14:22;;;;;;;3.72;1.42;;;;;;;;;;5034076;28;20108;-85
2023/03/10 09:16:48;;;;;;;4.13;1.60;;;;;;;;;;5035216;28;20400;-84
2023/03/10 09:19:13;;;;;;;6.05;1.92;;;;;;;;;;5034783;28;20099;-87
2023/03/10 09:21:41;;;;;;;3.33;1.50;;;;;;;;;;5033837;28;20056;-86
2023/03/10 09:24:07;;;;;;;10.43;2.33;;;;;;;;;;5034674;28;20502;-86
2023/03/10 09:26:33;;;;;;;5.93;2.25;;;;;;;;;;5016851;28;20061;-86
2023/03/10 09:28:59;;;;;;;5.05;1.33;;;;;;;;;;5035100;28;20041;-86
2023/03/10 09:31:30;;;;;;;4.47;1.35;;;;;;;;;;5035024;28;20116;-84
2023/03/10 09:33:55;;;;;;;6.72;1.30;;;;;;;;;;5035190;28;20041;-81
2023/03/10 09:36:21;;;;;;;2.08;1.13;;;;;;;;;;5034553;28;20160;-85
2023/03/10 09:38:47;;;;;;;5.70;1.60;;;;;;;;;;4999142;28;20041;-84
2023/03/10 09:41:21;;;;;;;3.38;1.42;;;;;;;;;;4999272;28;20088;-84
2023/03/10 09:44:11;;;;;;;3.78;1.50;;;;;;;;;;5018119;28;20080;-83
2023/03/10 09:47:01;;;;;;;4.70;1.50;;;;;;;;;;5016164;28;20037;-85
2023/03/10 09:49:29;;;;;;;6.18;1.45;;;;;;;;;;5033189;28;20079;-85
2023/03/10 09:51:55;;;;;;;5.72;1.27;;;;;;;;;;5032467;28;20037;-85
2023/03/10 09:54:39;;;;;;;2.50;1.30;;;;;;;;;;5034457;28;20017;-86
2023/03/10 09:57:14;;;;;;;2.67;1.30;;;;;;;;;;5033953;28;20038;-85
2023/03/10 09:59:43;;;;;;;2.50;1.40;;;;;;;;;;5032860;28;20038;-85
2023/03/10 10:02:21;;;;;;;6.63;1.38;;;;;;;;;;5032357;28;20056;-86
2023/03/10 10:04:52;;;;;;;3.10;1.40;;;;;;;;;;5015237;28;20029;-84
2023/03/10 10:07:21;;;;;;;5.15;1.40;;;;;;;;;;5032482;28;20112;-84
2023/03/10 10:09:52;;;;;;;4.65;1.50;;;;;;;;;;5031491;28;20076;-83
2023/03/10 10:12:22;;;;;;;3.05;1.40;;;;;;;;;;5013801;28;20453;-84
2023/03/10 10:14:53;;;;;;;2.75;1.30;;;;;;;;;;5031426;28;20441;-86
2023/03/10 10:17:22;;;;;;;3.88;1.58;;;;;;;;;;5030698;28;20025;-85
2023/03/10 10:19:48;;;;;;;3.38;1.48;;;;;;;;;;5031585;28;20064;-85
2023/03/10 10:22:22;;;;;;;2.20;1.38;;;;;;;;;;5031371;28;20379;-85
2023/03/10 10:25:08;;;;;;;4.05;1.95;;;;;;;;;;5038376;28;20068;-82
2023/03/10 10:27:37;;;;;;;4.03;1.90;;;;;;;;;;5034768;28;20075;-84
2023/03/10 10:30:32;;;;;;;7.50;4.55;;;;;;;;;;5015795;28;20065;-83
2023/03/10 10:33:04;;;;;;;6.90;3.22;;;;;;;;;;5039837;28;20056;-85
2023/03/10 10:35:38;;;;;;;3.25;1.58;;;;;;;;;;5039914;28;20401;-87
2023/03/10 10:38:04;;;;;;;2.85;1.60;;;;;;;;;;5023324;28;20132;-85
2023/03/10 10:40:33;;;;;;;4.65;1.63;;;;;;;;;;5039370;28;20056;-84
2023/03/10 10:43:00;;;;;;;2.90;1.30;;;;;;;;;;5039584;28;20136;-85
2023/03/10 10:45:34;;;;;;;4.20;1.40;;;;;;;;;;5020108;28;20138;-84
2023/03/10 10:48:00;;;;;;;2.75;1.40;;;;;;;;;;5020762;28;20037;-85
2023/03/10 10:50:31;;;;;;;1.80;1.20;;;;;;;;;;5038365;28;20036;-84
2023/03/10 10:53:14;;;;;;;4.35;1.38;;;;;;;;;;5019893;28;20035;-85
2023/03/10 10:55:42;;;;;;;2.58;1.50;;;;;;;;;;5021672;28;20389;-84
2023/03/10 10:58:27;;;;;;;2.92;1.50;;;;;;;;;;5021079;28;20045;-85
2023/03/10 11:00:57;;;;;;;3.35;1.40;;;;;;;;;;5038961;28;20033;-84
2023/03/10 11:03:27;;;;;;;4.70;1.52;;;;;;;;;;5004024;28;20101;-85
2023/03/10 11:05:53;;;;;;;2.78;1.42;;;;;;;;;;5038093;28;20029;-85
2023/03/10 11:08:41;;;;;;;3.15;1.40;;;;;;;;;;5019701;28;20041;-83
2023/03/10 11:11:52;;;;;;;2.22;1.25;;;;;;;;;;5037855;28;20065;-84
2023/03/10 11:14:23;;;;;;;7.78;1.83;;;;;;;;;;5035995;28;20076;-85
2023/03/10 11:17:07;;;;;;;2.83;1.48;;;;;;;;;;5035038;28;20651;-85
2023/03/10 11:19:51;;;;;;;2.15;1.42;;;;;;;;;;5035143;28;20033;-83
2023/03/10 11:22:42;;;;;;;4.75;1.77;;;;;;;;;;5017063;28;20087;-84
2023/03/10 11:25:32;;;;;;;2.63;1.60;;;;;;;;;;5016813;28;20057;-83
2023/03/10 11:28:23;;;;;;;3.60;1.50;;;;;;;;;;5036083;28;20405;-84
2023/03/10 11:31:13;;;;;;;4.97;1.50;;;;;;;;;;5034003;28;20087;-85
2023/03/10 11:34:02;;;;;;;2.63;1.40;;;;;;;;;;5022587;28;20037;-85
2023/03/10 11:36:39;;;;;;;3.17;0.70;;;;;;;;;;5023685;28;20128;-85
2023/03/10 11:39:34;;;;;;;2.15;0.60;;;;;;;;;;5041539;28;20033;-85
2023/03/10 11:42:33;;;;;;;3.55;0.60;;;;;;;;;;5037212;28;20520;-85
2023/03/10 11:44:58;;;;;;;1.58;0.50;;;;;;;;;;5038118;28;20072;-85
2023/03/10 11:47:40;;;;;;;0.95;0.50;;;;;;;;;;5041812;28;20033;-87
2023/03/10 11:50:25;;;;;;;0.88;0.40;;;;;;;;;;5039872;28;20038;-86
2023/03/10 11:53:00;;;;;;;2.13;0.73;;;;;;;;;;5022245;28;20041;-86
2023/03/10 11:55:26;;;;;;;0.75;0.50;;;;;;;;;;5004995;28;20036;-85
2023/03/10 11:57:57;;;;;;;0.30;0.30;;;;;;;;;;5039252;28;20030;-84
2023/03/10 12:00:38;;;;;;;1.35;0.50;;;;;;;;;;5021314;28;20025;-86
2023/03/10 12:03:06;;;;;;;0.57;0.30;;;;;;;;;;5039476;28;20043;-84
2023/03/10 12:05:42;;;;;;;1.20;0.60;;;;;;;;;;5020750;28;20036;-85
2023/03/10 12:08:08;;;;;;;1.98;0.82;;;;;;;;;;5038731;28;20053;-85
2023/03/10 12:10:38;;;;;;;1.00;0.60;;;;;;;;;;5002854;28;20049;-86
2023/03/10 12:13:05;;;;;;;1.70;0.93;;;;;;;;;;5037971;28;20044;-86
2023/03/10 12:15:35;;;;;;;2.30;0.75;;;;;;;;;;5037591;28;20110;-84
2023/03/10 12:18:06;;;;;;;1.77;0.95;;;;;;;;;;5019971;28;20034;-85
2023/03/10 12:20:33;;;;;;;2.25;0.70;;;;;;;;;;5037549;28;20486;-87
2023/03/10 12:23:08;;;;;;;4.57;2.33;;;;;;;;;;5020396;28;20029;-83
2023/03/10 12:25:36;;;;;;;2.33;1.40;;;;;;;;;;5036463;28;20033;-88
2023/03/10 12:28:23;;;;;;;1.25;0.60;;;;;;;;;;5018634;28;20508;-86
2023/03/10 12:31:05;;;;;;;0.85;0.70;;;;;;;;;;5037760;28;20063;-85
2023/03/10 12:33:36;;;;;;;1.85;0.95;;;;;;;;;;5038319;28;20113;-86
2023/03/10 12:36:20;;;;;;;0.90;0.50;;;;;;;;;;5039080;28;20025;-86
2023/03/10 12:39:17;;;;;;;0.88;0.50;;;;;;;;;;5039743;28;20041;-85
2023/03/10 12:41:47;;;;;;;0.45;0.30;;;;;;;;;;5032864;28;20040;-85
2023/03/10 12:44:22;;;;;;;0.40;0.40;;;;;;;;;;5014867;28;20037;-84
2023/03/10 12:47:09;;;;;;;1.17;0.52;;;;;;;;;;5015014;28;20064;-85
2023/03/10 12:49:40;;;;;;;1.17;0.40;;;;;;;;;;5014940;28;20037;-84
2023/03/10 12:52:06;;;;;;;0.35;0.25;;;;;;;;;;5001494;28;20456;-85
2023/03/10 12:54:43;;;;;;;0.57;0.30;;;;;;;;;;5041074;28;20041;-84
2023/03/10 12:57:18;;;;;;;0.45;0.30;;;;;;;;;;5018022;28;20056;-86
2023/03/10 13:00:05;;;;;;;0.57;0.30;;;;;;;;;;5018101;28;20109;-86
2023/03/10 13:02:46;;;;;;;0.38;0.30;;;;;;;;;;5035108;28;20037;-85
2023/03/10 13:05:54;;;;;;;2.53;1.40;;;;;;;;;;5034888;28;20033;-85
2023/03/10 13:08:38;;;;;;;1.30;0.93;;;;;;;;;;5037503;28;20064;-85
2023/03/10 13:11:06;;;;;;;1.60;1.10;;;;;;;;;;5037772;28;20053;-86
2023/03/10 13:13:36;;;;;;;2.58;1.52;;;;;;;;;;5019556;28;20033;-83
2023/03/10 13:16:05;;;;;;;2.13;1.00;;;;;;;;;;5018887;28;20052;-86
2023/03/10 13:18:31;;;;;;;4.93;1.00;;;;;;;;;;5019379;28;20033;-84
2023/03/10 13:21:00;;;;;;;2.40;1.02;;;;;;;;;;5018861;28;20407;-84
2023/03/10 13:23:33;;;;;;;1.60;1.00;;;;;;;;;;5019672;28;20033;-84
2023/03/10 13:26:15;;;;;;;1.13;0.83;;;;;;;;;;5018026;28;20044;-86
2023/03/10 13:28:51;;;;;;;1.15;0.70;;;;;;;;;;5037527;28;20037;-84
2023/03/10 13:31:20;;;;;;;1.20;0.80;;;;;;;;;;5037639;28;20064;-85
2023/03/10 13:33:47;;;;;;;2.25;1.20;;;;;;;;;;5037089;28;20061;-83
2023/03/10 13:36:40;;;;;;;1.13;0.82;;;;;;;;;;5020009;28;20038;-83
2023/03/10 13:39:14;;;;;;;1.13;0.63;;;;;;;;;;5036173;28;20038;-83
2023/03/10 13:41:43;;;;;;;1.45;0.68;;;;;;;;;;5018644;28;20042;-84
2023/03/10 13:44:40;;;;;;;1.00;0.60;;;;;;;;;;5036648;28;20041;-82
2023/03/10 13:47:15;;;;;;;1.52;0.80;;;;;;;;;;5021688;28;20069;-83
2023/03/10 13:49:48;;;;;;;1.98;1.33;;;;;;;;;;5036749;28;20041;-85
2023/03/10 13:52:18;;;;;;;0.70;0.50;;;;;;;;;;5035654;28;20485;-82
2023/03/10 13:54:43;;;;;;;1.35;1.00;;;;;;;;;;5036070;28;20046;-83
2023/03/10 13:57:32;;;;;;;2.45;1.20;;;;;;;;;;5036091;28;20598;-86
2023/03/10 13:59:59;;;;;;;1.75;1.20;;;;;;;;;;5032929;28;20460;-84
2023/03/10 14:02:38;;;;;;;2.75;2.20;;;;;;;;;;4997811;28;20061;-84
2023/03/10 14:05:06;;;;;;;3.28;2.10;;;;;;;;;;5032020;28;20048;-84
2023/03/10 14:07:34;;;;;;;1.58;1.15;;;;;;;;;;5043526;28;20040;-86
2023/03/10 14:10:03;;;;;;;0.70;0.60;;;;;;;;;;5037075;28;20120;-87
2023/03/10 14:12:38;;;;;;;0.70;0.40;;;;;;;;;;5036853;28;20096;-88
2023/03/10 14:15:37;;;;;;;1.67;0.40;;;;;;;;;;5037155;28;20102;-87
2023/03/10 14:18:05;;;;;;;0.43;0.20;;;;;;;;;;5038454;28;20037;-87
2023/03/10 14:20:45;;;;;;;0.60;0.40;;;;;;;;;;5037272;28;20040;-88
2023/03/10 14:23:17;;;;;;;1.13;0.50;;;;;;;;;;5037009;28;20504;-88
2023/03/10 14:25:43;;;;;;;0.35;0.30;;;;;;;;;;5036759;28;20116;-90
2023/03/10 14:28:16;;;;;;;1.45;0.40;;;;;;;;;;5040790;28;20049;-89
2023/03/10 14:30:43;;;;;;;0.73;0.40;;;;;;;;;;5021478;28;20030;-87
2023/03/10 14:33:13;;;;;;;0.88;0.30;;;;;;;;;;5037275;28;20059;-87
2023/03/10 14:35:39;;;;;;;0.65;0.30;;;;;;;;;;5024434;28;20025;-86
2023/03/10 14:38:05;;;;;;;0.73;0.40;;;;;;;;;;5043266;28;20739;-85
2023/03/10 14:40:33;;;;;;;0.20;0.20;;;;;;;;;;5027161;28;20056;-84
2023/03/10 14:43:01;;;;;;;0.32;0.20;;;;;;;;;;5042457;28;20041;-86
2023/03/10 14:45:35;;;;;;;0.20;0.13;;;;;;;;;;5042454;28;20548;-85
2023/03/10 14:48:06;;;;;;;0.70;0.20;;;;;;;;;;5029939;28;20093;-84
2023/03/10 14:50:32;;;;;;;0.00;0.00;;;;;;;;;;5046688;28;20041;-84
2023/03/10 14:52:57;;;;;;;0.50;0.20;;;;;;;;;;5047963;28;20025;-84
2023/03/10 14:55:23;;;;;;;0.70;0.10;;;;;;;;;;5045660;28;20441;-85
2023/03/10 14:57:58;;;;;;;0.45;0.20;;;;;;;;;;5049015;28;20036;-84